Terminal Aerodrome Forecast
Issued by NWS Sterling, VA

Home | Current Version | Previous Version | Text Only | Print | Product List | Glossary On
Versions: 1 2 3 4 5 6 7 8 9 10 11 12 13 14 15 16 17 18 19 20 21
000
FTUS41 KLWX 302335
TAFBWI
TAF
KBWI 302335Z 3100/0106 12006KT P6SM FEW060
     FM310300 VRB03KT P6SM FEW250
     FM311700 18006KT P6SM FEW050 SCT250
     FM312100 15007KT P6SM SCT050
     FM010300 18004KT P6SM BKN100=

USA.gov is the U.S. government's official web portal to all federal, state and local government web resources and services.